Wallace, NE (69169)

10:43 PM CST on December 02, 2016 (GMT -0600)
Sisco Fertilizer | | Change Station

Elev 3415 ft 40.84 °N, 101.40 °W | Updated 5 seconds ago

Mostly Cloudy
Mostly Cloudy
28.1 °F
Feels Like 28 °F
N
0.0
Wind Variable Wind from South
Gusts 1.0 mph

Today
High -- | Low -- °F
--% Chance of Precip.
Yesterday
High -- | Low -- °F
Precip. -- in
Pressure 30.37 in
Visibility 10.0 miles
Clouds Mostly Cloudy 10000 ft
Windchill 28 °F
Dew Point 22 °F
Humidity 79%
Rainfall 0.00 in
Snow Depth Not available.
7:51 AM 5:17 PM
Waxing Crescent, 12% visible
METAR KLBF 030253Z AUTO 00000KT 10SM BKN100 M05/M07 A3026 RMK AO2 SLP284 T10501072 53005
Pressure 30.37 in
Visibility 10.0 miles
Clouds Mostly Cloudy 10000 ft
Windchill 28 °F
Dew Point 22 °F
Humidity 79%
Rainfall 0.00 in
Snow Depth Not available.
7:51 AM 5:17 PM
Waxing Crescent, 12% visible
METAR KLBF 030253Z AUTO 00000KT 10SM BKN100 M05/M07 A3026 RMK AO2 SLP284 T10501072 53005

10-Day Weather Forecast

Almanac

Astronomy

Dec. 02, 2016 Rise Set
Actual Time
Civil Twilight
Nautical Twilight
Astronomical Twilight
Moon
Length of Visible Light
Length of Day
Tomorrow will be .
, % of the Moon is Illuminated

Today's Extremes

State Highs State Lows

Community

WunderPhotos

Upload Photos

1,955,411 photos uploaded!

WunderBlog® & News

Nearby

Air Quality

  Air Quality AQ Index Pollutant
Not available.

Snow Depth

Station Depth Elevation

Earthquake Activity

City Distance Mag. Time & Date
Minimum magnitude displayed is 2.5.

Coastal Water Temperatures

Place Temperature

Stations

Nearby Weather Stations

Station Location Temp. Windchill Dew Point Humidity Wind Precip. Elev Updated Type
                   

Watches & Warnings

There are currently no watches in effect.